CJV2 weather

Neilburg Airport
Neilburg, Saskatchewan, Canada

Public forecast

Using degrees Celsius for public forecast. Weather courtesy of forecast.io.

Closest aviation weather report (METAR) to Neilburg Airport

Closest report is Lloydminster Airport, 32.7 nm (60.5 km) NNW. Retrieved 2019/10/19 03:00 UTC (53 minutes ago):

CYLL 190300Z 27009KT 15SM FEW100 SCT180 05/01 A2945 RMK AC2AC2 SLP998

Closest aviation forecast (TAF) to Neilburg Airport

Closest forecast is Lloydminster Airport, 32.7 nm (60.5 km) NNW. Retrieved 2019-10-19 00:39 UTC (3 hours ago):

TAF CYLL 182338Z 1900/1912 29008KT P6SM FEW050 SCT120 BKN240 FM190200 28008KT P6SM SCT070 BKN100 FM190700 25008KT P6SM FEW070 SCT240 RMK NXT FCST BY 190600Z